Aeroporto :
LOGIN :

Iscrizione | Disclaimer

   EN    FR    IT 

 










Sommario :    VFR   VFR Marginale   IFR   IFR Intensivo   IFR Molto Intensivo
Visibilità : 
Base nubi : 
>= 8 km
>= 3000ft
5 / 8 km
1000 / 3000 ft
1500m / 5 km
500 / 1000 ft
800 / 1500m
200 / 500 ft
< 800m
< 200 ft
Simboli :   Temporali  Nebbia  Neve Forte  Precipitazioni Forti  Vento > 20 kt
SIGMETs :   Varie  Temporali  Ghiacco  Turbolenza  Onda orograficha  Ceneri Vulcaniche






- Altitudine del aeroporto : 1197 ft
- Codice IATA : SPM


ETAD - Spangdahlem Ab

ULTIMO METAR :
  • 131530Z 19007KT 9999 OVC003 03/03 A2961 RMK CIG 002 RWY23 SLPNO

METARs OBSOLETI :
  • 131456Z AUTO 20006KT 8000 BR OVC002 03/03 A2962 RMK AO2 OVC V BKN SLP036 T00340030 53005 $
  • 131411Z AUTO 20008KT 9999 OVC005 04/03 A2961 RMK AO2 SLP031 $
  • 131356Z AUTO 21008KT 9999 OVC004 04/03 A2961 RMK AO2 SLP031 T00360027 $
  • 131256Z AUTO 22009KT 9999 OVC003 03/03 A2960 RMK AO2 SLP028 T00330027 $

TAF AMD TAF ETAD
Valido dal 13 a 15 ore il 14 a 19 ore UTC


131501Z 1315/1419 20009KT 8000 BR OVC003 620159 QNH2950INS
TEMPO 1313/1321 5000 BR BKN002 OVC003
BECMG 1405/1406 17012G20KT 9999 NSW SCT010 BKN015 QNH2948INS TX03/1315Z TN02/1405Z



MetMap, La meteo Aeronautica in un colpo d'occhio ! - Copyright ORBIFLY Dicembre 2007 - Disclaimer

ORBIFLY MET'MAP TEAM :

Programmazione e sviluppo : Alexandra Zaïnal
Concezione e sviluppo : Baudouin d'Aumeries
Co-Programmazione e sviluppo : Marc-Olivier Méhu
Supporto tecnico e logistico : Manuel Goepfert
Aiuto per la traduzione : Arnaldo La Scala

Contatto : metmap@orbifly.com




FONTI E CREDITI :

   NOAA